Portada
Imágenes satélite Pronóstico 15 díasClimaPredicción Marítima Ciclones Rayo AeropuertosFAQ Noticias Acerca
El tiempo : Europa África América del Norte América del Sur Asia Australia-Oceanía Otros
Idiomas Contacto

Asunción, Paraguay

Aeropuerto Internacional Silvio Pettirossi (Luque)

latitud: 25-16S, longitud: 057-38W, altitud: 101 m


METAR: SGAS 252000Z VRB03KT 9999 FEW033 35/15 Q1007
TAF: SGAS 251701Z 2518/2618 VRB04KT 9999 SCT033 TX37/2519Z TN23/2610Z BECMG 2600/2603 15006KT CAVOK

Hora: 17:34 (20:34 UTC)

Observación

El informe se hizo hace 34 minutos, a las 20:00 UTC
Viento 3 kt con dirección variable
Temperatura 35°C
Humedad 30%
Presión 1007 hPa
Visibilidad 10 km o más
Escasas nubes a una altura de 3300 ft

Cambiar las unidades

Pronóstico

El informe se hizo hace 3 horas y 33 minutos, a las 17:01 UTC
Pronóstico válido del 25 a las 18 UTC al 26 a las 18 UTC
Viento 4 kt con dirección variable
Visibilidad 10 km o más
Nubes dispersas a una altura de 3300 ft
Evolucionando progresivamente
del 26 a las 00 UTC al 26 a las 03 UTC
Viento 6 kt del sur-sureste
Visibilidad 10 km o más
sin nubes por debajo de 1500 m y sin presencia de cumulonimbus.
La información que se ofrece en estas páginas está sujeta a una cláusula de exención de responsabilidad
El tiempo : Europa África América del Norte América del Sur Asia Australia-Oceanía Otros
Imágenes satélite Pronóstico 15 díasClimaPredicción Marítima Ciclones Rayo AeropuertosFAQ Idiomas Contacto Noticias Acerca